sensor_id;sensor_type;location;lat;lon;timestamp;pressure;altitude;pressure_sealevel;temperature;humidity
30967;BME280;17649;51.836;8.330;2023-03-04T00:00:38;101814.97;;;6.06;nan
30967;BME280;17649;51.836;8.330;2023-03-04T00:03:44;101814.22;;;6.01;nan
30967;BME280;17649;51.836;8.330;2023-03-04T00:06:45;101817.50;;;6.11;nan
30967;BME280;17649;51.836;8.330;2023-03-04T00:09:45;101815.78;;;6.08;nan
30967;BME280;17649;51.836;8.330;2023-03-04T00:12:46;101816.63;;;6.12;nan
30967;BME280;17649;51.836;8.330;2023-03-04T00:15:47;101820.75;;;6.19;nan
30967;BME280;17649;51.836;8.330;2023-03-04T00:18:47;101816.63;;;6.12;nan
30967;BME280;17649;51.836;8.330;2023-03-04T00:21:47;101825.25;;;6.06;nan
30967;BME280;17649;51.836;8.330;2023-03-04T00:24:48;101816.66;;;6.10;nan
30967;BME280;17649;51.836;8.330;2023-03-04T00:27:48;101816.47;;;6.19;nan
30967;BME280;17649;51.836;8.330;2023-03-04T00:30:49;101808.72;;;6.21;nan
30967;BME280;17649;51.836;8.330;2023-03-04T00:33:49;101815.66;;;6.17;nan
30967;BME280;17649;51.836;8.330;2023-03-04T00:36:50;101818.28;;;6.14;nan
30967;BME280;17649;51.836;8.330;2023-03-04T00:39:50;101804.63;;;6.12;nan
30967;BME280;17649;51.836;8.330;2023-03-04T00:42:50;101807.06;;;6.18;nan
30967;BME280;17649;51.836;8.330;2023-03-04T00:45:51;101809.47;;;6.27;nan
30967;BME280;17649;51.836;8.330;2023-03-04T00:48:51;101798.38;;;6.24;nan
30967;BME280;17649;51.836;8.330;2023-03-04T00:51:51;101797.66;;;6.17;nan
30967;BME280;17649;51.836;8.330;2023-03-04T00:54:52;101797.63;;;6.19;nan
30967;BME280;17649;51.836;8.330;2023-03-04T00:57:52;101795.16;;;6.14;nan
30967;BME280;17649;51.836;8.330;2023-03-04T01:00:53;101802.75;;;6.19;nan
30967;BME280;17649;51.836;8.330;2023-03-04T01:03:53;101800.00;;;6.30;nan
30967;BME280;17649;51.836;8.330;2023-03-04T01:06:53;101797.44;;;6.30;nan
30967;BME280;17649;51.836;8.330;2023-03-04T01:09:54;101796.66;;;6.26;nan
30967;BME280;17649;51.836;8.330;2023-03-04T01:12:54;101791.53;;;6.23;nan
30967;BME280;17649;51.836;8.330;2023-03-04T01:15:54;101800.00;;;6.30;nan
30967;BME280;17649;51.836;8.330;2023-03-04T01:18:55;101797.72;;;6.14;nan
30967;BME280;17649;51.836;8.330;2023-03-04T01:21:55;101800.28;;;6.14;nan
30967;BME280;17649;51.836;8.330;2023-03-04T01:24:55;101796.72;;;6.21;nan
30967;BME280;17649;51.836;8.330;2023-03-04T01:27:56;101796.66;;;6.24;nan
30967;BME280;17649;51.836;8.330;2023-03-04T01:30:56;101794.75;;;6.36;nan
30967;BME280;17649;51.836;8.330;2023-03-04T01:33:56;101782.66;;;6.39;nan
30967;BME280;17649;51.836;8.330;2023-03-04T01:36:57;101789.56;;;6.37;nan
30967;BME280;17649;51.836;8.330;2023-03-04T01:39:57;101780.91;;;6.43;nan
30967;BME280;17649;51.836;8.330;2023-03-04T01:42:58;101781.03;;;6.35;nan
30967;BME280;17649;51.836;8.330;2023-03-04T01:45:58;101778.44;;;6.37;nan
30967;BME280;17649;51.836;8.330;2023-03-04T01:48:59;101778.50;;;6.34;nan
30967;BME280;17649;51.836;8.330;2023-03-04T01:51:59;101774.94;;;6.41;nan
30967;BME280;17649;51.836;8.330;2023-03-04T01:54:59;101770.56;;;6.46;nan
30967;BME280;17649;51.836;8.330;2023-03-04T01:57:59;101756.28;;;6.31;nan
30967;BME280;17649;51.836;8.330;2023-03-04T02:01:00;101768.31;;;6.29;nan
30967;BME280;17649;51.836;8.330;2023-03-04T02:04:00;101758.19;;;6.20;nan
30967;BME280;17649;51.836;8.330;2023-03-04T02:07:02;101754.97;;;6.09;nan
30967;BME280;17649;51.836;8.330;2023-03-04T02:10:04;101754.88;;;6.15;nan
30967;BME280;17649;51.836;8.330;2023-03-04T02:13:05;101756.56;;;6.16;nan
30967;BME280;17649;51.836;8.330;2023-03-04T02:16:05;101754.03;;;6.14;nan
30967;BME280;17649;51.836;8.330;2023-03-04T02:19:36;101754.00;;;6.16;nan
30967;BME280;17649;51.836;8.330;2023-03-04T02:22:35;101744.75;;;6.06;nan
30967;BME280;17649;51.836;8.330;2023-03-04T02:28:55;101746.53;;;6.02;nan
30967;BME280;17649;51.836;8.330;2023-03-04T02:31:57;101743.03;;;6.06;nan
30967;BME280;17649;51.836;8.330;2023-03-04T02:34:57;101741.41;;;6.02;nan
30967;BME280;17649;51.836;8.330;2023-03-04T02:37:57;101731.84;;;6.10;nan
30967;BME280;17649;51.836;8.330;2023-03-04T02:40:58;101732.72;;;6.08;nan
30967;BME280;17649;51.836;8.330;2023-03-04T02:43:58;101738.59;;;6.14;nan
30967;BME280;17649;51.836;8.330;2023-03-04T02:46:59;101723.28;;;6.08;nan
30967;BME280;17649;51.836;8.330;2023-03-04T02:50:00;101727.66;;;6.05;nan
30967;BME280;17649;51.836;8.330;2023-03-04T02:53:00;101725.91;;;6.05;nan
30967;BME280;17649;51.836;8.330;2023-03-04T02:56:01;101728.59;;;6.01;nan
30967;BME280;17649;51.836;8.330;2023-03-04T02:59:01;101729.38;;;6.04;nan
30967;BME280;17649;51.836;8.330;2023-03-04T03:02:02;101724.56;;;5.84;nan
30967;BME280;17649;51.836;8.330;2023-03-04T03:05:03;101720.38;;;5.79;nan
30967;BME280;17649;51.836;8.330;2023-03-04T03:08:03;101717.69;;;5.86;nan
30967;BME280;17649;51.836;8.330;2023-03-04T03:11:04;101720.09;;;5.97;nan
30967;BME280;17649;51.836;8.330;2023-03-04T03:14:05;101723.41;;;6.02;nan
30967;BME280;17649;51.836;8.330;2023-03-04T03:17:06;101721.56;;;6.10;nan
30967;BME280;17649;51.836;8.330;2023-03-04T03:20:07;101714.69;;;6.09;nan
30967;BME280;17649;51.836;8.330;2023-03-04T03:23:08;101712.91;;;6.14;nan
30967;BME280;17649;51.836;8.330;2023-03-04T03:26:08;101704.41;;;6.09;nan
30967;BME280;17649;51.836;8.330;2023-03-04T03:29:08;101705.66;;;5.88;nan
30967;BME280;17649;51.836;8.330;2023-03-04T03:32:09;101709.75;;;6.00;nan
30967;BME280;17649;51.836;8.330;2023-03-04T03:35:09;101705.63;;;5.91;nan
30967;BME280;17649;51.836;8.330;2023-03-04T03:38:10;101701.53;;;5.81;nan
30967;BME280;17649;51.836;8.330;2023-03-04T03:41:10;101703.69;;;6.04;nan
30967;BME280;17649;51.836;8.330;2023-03-04T03:44:10;101697.94;;;5.88;nan
30967;BME280;17649;51.836;8.330;2023-03-04T03:47:11;101699.53;;;5.97;nan
30967;BME280;17649;51.836;8.330;2023-03-04T03:50:11;101700.38;;;5.97;nan
30967;BME280;17649;51.836;8.330;2023-03-04T03:53:11;101705.50;;;5.99;nan
30967;BME280;17649;51.836;8.330;2023-03-04T03:56:12;101703.09;;;5.88;nan
30967;BME280;17649;51.836;8.330;2023-03-04T03:59:12;101709.78;;;5.98;nan
30967;BME280;17649;51.836;8.330;2023-03-04T04:02:13;101700.44;;;5.93;nan
30967;BME280;17649;51.836;8.330;2023-03-04T04:05:13;101708.34;;;5.82;nan
30967;BME280;17649;51.836;8.330;2023-03-04T04:08:15;101705.59;;;5.93;nan
30967;BME280;17649;51.836;8.330;2023-03-04T04:11:16;101703.97;;;5.87;nan
30967;BME280;17649;51.836;8.330;2023-03-04T04:14:16;101693.47;;;6.01;nan
30967;BME280;17649;51.836;8.330;2023-03-04T04:17:16;101704.69;;;5.97;nan
30967;BME280;17649;51.836;8.330;2023-03-04T04:20:17;101689.31;;;5.94;nan
30967;BME280;17649;51.836;8.330;2023-03-04T04:23:17;101695.09;;;6.05;nan
30967;BME280;17649;51.836;8.330;2023-03-04T04:26:18;101685.66;;;6.06;nan
30967;BME280;17649;51.836;8.330;2023-03-04T04:29:18;101686.38;;;6.14;nan
30967;BME280;17649;51.836;8.330;2023-03-04T04:32:18;101680.56;;;6.04;nan
30967;BME280;17649;51.836;8.330;2023-03-04T04:35:19;101668.72;;;5.97;nan
30967;BME280;17649;51.836;8.330;2023-03-04T04:38:19;101686.78;;;5.89;nan
30967;BME280;17649;51.836;8.330;2023-03-04T04:41:25;101685.00;;;5.96;nan
30967;BME280;17649;51.836;8.330;2023-03-04T04:44:26;101682.63;;;5.84;nan
30967;BME280;17649;51.836;8.330;2023-03-04T04:47:26;101675.56;;;5.95;nan
30967;BME280;17649;51.836;8.330;2023-03-04T04:50:27;101673.19;;;5.84;nan
30967;BME280;17649;51.836;8.330;2023-03-04T04:53:27;101673.06;;;5.92;nan
30967;BME280;17649;51.836;8.330;2023-03-04T04:56:27;101675.69;;;5.89;nan
30967;BME280;17649;51.836;8.330;2023-03-04T04:59:28;101686.47;;;6.08;nan
30967;BME280;17649;51.836;8.330;2023-03-04T05:02:28;101674.72;;;5.94;nan
30967;BME280;17649;51.836;8.330;2023-03-04T05:05:29;101689.47;;;5.85;nan
30967;BME280;17649;51.836;8.330;2023-03-04T05:08:29;101679.69;;;6.05;nan
30967;BME280;17649;51.836;8.330;2023-03-04T05:11:30;101680.56;;;6.04;nan
30967;BME280;17649;51.836;8.330;2023-03-04T05:14:31;101686.97;;;5.79;nan
30967;BME280;17649;51.836;8.330;2023-03-04T05:17:31;101684.28;;;5.86;nan
30967;BME280;17649;51.836;8.330;2023-03-04T05:20:31;101673.88;;;5.94;nan
30967;BME280;17649;51.836;8.330;2023-03-04T05:23:34;101681.94;;;5.74;nan
30967;BME280;17649;51.836;8.330;2023-03-04T05:26:35;101682.91;;;5.68;nan
30967;BME280;17649;51.836;8.330;2023-03-04T05:29:35;101674.81;;;5.88;nan
30967;BME280;17649;51.836;8.330;2023-03-04T05:32:35;101681.66;;;5.91;nan
30967;BME280;17649;51.836;8.330;2023-03-04T05:35:37;101678.34;;;5.84;nan
30967;BME280;17649;51.836;8.330;2023-03-04T05:38:38;101679.03;;;5.94;nan
30967;BME280;17649;51.836;8.330;2023-03-04T05:41:39;101669.63;;;5.93;nan
30967;BME280;17649;51.836;8.330;2023-03-04T05:44:39;101680.88;;;5.86;nan
30967;BME280;17649;51.836;8.330;2023-03-04T05:47:39;101688.81;;;5.72;nan
30967;BME280;17649;51.836;8.330;2023-03-04T05:50:39;101689.81;;;5.66;nan
30967;BME280;17649;51.836;8.330;2023-03-04T05:53:40;101686.78;;;5.91;nan
30967;BME280;17649;51.836;8.330;2023-03-04T05:56:40;101691.22;;;5.83;nan
30967;BME280;17649;51.836;8.330;2023-03-04T05:59:41;101691.34;;;5.75;nan
30967;BME280;17649;51.836;8.330;2023-03-04T06:02:42;101700.56;;;5.87;nan
30967;BME280;17649;51.836;8.330;2023-03-04T06:05:43;101695.53;;;5.79;nan
30967;BME280;17649;51.836;8.330;2023-03-04T06:08:43;101701.50;;;5.83;nan
30967;BME280;17649;51.836;8.330;2023-03-04T06:11:44;101702.19;;;5.92;nan
30967;BME280;17649;51.836;8.330;2023-03-04T06:14:44;101706.59;;;5.84;nan
30967;BME280;17649;51.836;8.330;2023-03-04T06:17:51;101707.22;;;5.98;nan
30967;BME280;17649;51.836;8.330;2023-03-04T06:21:00;101711.50;;;5.98;nan
30967;BME280;17649;51.836;8.330;2023-03-04T06:24:00;101708.41;;;5.78;nan
30967;BME280;17649;51.836;8.330;2023-03-04T06:27:01;101716.84;;;5.86;nan
30967;BME280;17649;51.836;8.330;2023-03-04T06:30:02;101723.97;;;5.70;nan
30967;BME280;17649;51.836;8.330;2023-03-04T06:33:03;101712.13;;;5.61;nan
30967;BME280;17649;51.836;8.330;2023-03-04T06:36:03;101709.63;;;5.58;nan
30967;BME280;17649;51.836;8.330;2023-03-04T06:39:05;101715.47;;;5.66;nan
30967;BME280;17649;51.836;8.330;2023-03-04T06:42:05;101702.91;;;5.51;nan
30967;BME280;17649;51.836;8.330;2023-03-04T06:45:06;101711.34;;;5.58;nan
30967;BME280;17649;51.836;8.330;2023-03-04T06:48:07;101715.31;;;5.74;nan
30967;BME280;17649;51.836;8.330;2023-03-04T06:51:09;101718.50;;;5.88;nan
30967;BME280;17649;51.836;8.330;2023-03-04T06:54:09;101721.19;;;5.82;nan
30967;BME280;17649;51.836;8.330;2023-03-04T06:57:10;101722.16;;;5.75;nan
30967;BME280;17649;51.836;8.330;2023-03-04T07:00:11;101705.34;;;5.57;nan
30967;BME280;17649;51.836;8.330;2023-03-04T07:03:11;101725.09;;;5.54;nan
30967;BME280;17649;51.836;8.330;2023-03-04T07:06:14;101724.75;;;5.74;nan
30967;BME280;17649;51.836;8.330;2023-03-04T07:09:15;101727.63;;;6.06;nan
30967;BME280;17649;51.836;8.330;2023-03-04T07:12:16;101724.09;;;6.12;nan
30967;BME280;17649;51.836;8.330;2023-03-04T07:15:16;101722.72;;;5.92;nan
30967;BME280;17649;51.836;8.330;2023-03-04T07:18:17;101721.84;;;5.93;nan
30967;BME280;17649;51.836;8.330;2023-03-04T07:21:17;101718.22;;;6.05;nan
30967;BME280;17649;51.836;8.330;2023-03-04T07:24:18;101720.19;;;5.91;nan
30967;BME280;17649;51.836;8.330;2023-03-04T07:27:18;101724.44;;;5.92;nan
30967;BME280;17649;51.836;8.330;2023-03-04T07:30:19;101719.41;;;5.86;nan
30967;BME280;17649;51.836;8.330;2023-03-04T07:33:19;101727.97;;;5.86;nan
30967;BME280;17649;51.836;8.330;2023-03-04T07:36:19;101728.72;;;5.93;nan
30967;BME280;17649;51.836;8.330;2023-03-04T07:39:20;101720.81;;;6.04;nan
30967;BME280;17649;51.836;8.330;2023-03-04T07:42:20;101720.34;;;5.82;nan
30967;BME280;17649;51.836;8.330;2023-03-04T07:45:22;101714.31;;;5.84;nan
30967;BME280;17649;51.836;8.330;2023-03-04T07:48:22;101711.28;;;6.10;nan
30967;BME280;17649;51.836;8.330;2023-03-04T07:51:24;101711.75;;;6.29;nan
30967;BME280;17649;51.836;8.330;2023-03-04T07:54:25;101707.50;;;6.28;nan
30967;BME280;17649;51.836;8.330;2023-03-04T07:57:25;101723.66;;;6.33;nan
30967;BME280;17649;51.836;8.330;2023-03-04T08:00:25;101732.84;;;6.46;nan
30967;BME280;17649;51.836;8.330;2023-03-04T08:03:27;101721.56;;;6.52;nan
30967;BME280;17649;51.836;8.330;2023-03-04T08:06:29;101715.28;;;6.23;nan
30967;BME280;17649;51.836;8.330;2023-03-04T08:09:32;101709.53;;;6.12;nan
30967;BME280;17649;51.836;8.330;2023-03-04T08:12:35;101711.22;;;6.13;nan
30967;BME280;17649;51.836;8.330;2023-03-04T08:15:47;101723.25;;;6.11;nan
30967;BME280;17649;51.836;8.330;2023-03-04T08:18:59;101724.44;;;6.37;nan
30967;BME280;17649;51.836;8.330;2023-03-04T08:22:01;101724.03;;;6.58;nan
30967;BME280;17649;51.836;8.330;2023-03-04T08:25:03;101713.75;;;6.15;nan
30967;BME280;17649;51.836;8.330;2023-03-04T08:28:05;101717.13;;;6.60;nan
30967;BME280;17649;51.836;8.330;2023-03-04T08:31:05;101720.19;;;6.36;nan
30967;BME280;17649;51.836;8.330;2023-03-04T08:34:06;101720.44;;;6.65;nan
30967;BME280;17649;51.836;8.330;2023-03-04T08:37:09;101716.16;;;6.64;nan
30967;BME280;17649;51.836;8.330;2023-03-04T08:40:14;101716.66;;;6.81;nan
30967;BME280;17649;51.836;8.330;2023-03-04T08:43:40;101725.91;;;6.50;nan
30967;BME280;17649;51.836;8.330;2023-03-04T08:46:41;101713.00;;;6.51;nan
30967;BME280;17649;51.836;8.330;2023-03-04T08:49:42;101718.41;;;6.39;nan
30967;BME280;17649;51.836;8.330;2023-03-04T08:52:44;101724.47;;;6.77;nan
30967;BME280;17649;51.836;8.330;2023-03-04T08:55:45;101718.00;;;6.98;nan
30967;BME280;17649;51.836;8.330;2023-03-04T08:58:46;101703.09;;;6.75;nan
30967;BME280;17649;51.836;8.330;2023-03-04T09:01:47;101699.66;;;6.74;nan
30967;BME280;17649;51.836;8.330;2023-03-04T09:04:50;101709.31;;;7.03;nan
30967;BME280;17649;51.836;8.330;2023-03-04T09:07:51;101710.31;;;7.33;nan
30967;BME280;17649;51.836;8.330;2023-03-04T09:10:53;101705.69;;;7.10;nan
30967;BME280;17649;51.836;8.330;2023-03-04T09:13:54;101691.25;;;6.66;nan
30967;BME280;17649;51.836;8.330;2023-03-04T09:16:55;101701.25;;;6.40;nan
30967;BME280;17649;51.836;8.330;2023-03-04T09:19:56;101712.63;;;6.70;nan
30967;BME280;17649;51.836;8.330;2023-03-04T09:26:15;101705.84;;;6.66;nan
30967;BME280;17649;51.836;8.330;2023-03-04T09:29:17;101715.34;;;7.02;nan
30967;BME280;17649;51.836;8.330;2023-03-04T09:32:17;101709.00;;;7.17;nan
30967;BME280;17649;51.836;8.330;2023-03-04T09:35:19;101700.59;;;7.44;nan
30967;BME280;17649;51.836;8.330;2023-03-04T09:38:20;101691.38;;;7.68;nan
30967;BME280;17649;51.836;8.330;2023-03-04T09:41:47;101700.13;;;7.27;nan
30967;BME280;17649;51.836;8.330;2023-03-04T09:44:46;101711.72;;;7.09;nan
30967;BME280;17649;51.836;8.330;2023-03-04T09:47:49;101705.66;;;6.75;nan
30967;BME280;17649;51.836;8.330;2023-03-04T09:54:48;101702.44;;;7.04;nan
30967;BME280;17649;51.836;8.330;2023-03-04T09:58:13;101711.13;;;7.00;nan
30967;BME280;17649;51.836;8.330;2023-03-04T10:07:34;101706.09;;;6.53;nan
30967;BME280;17649;51.836;8.330;2023-03-04T10:10:37;101698.72;;;6.38;nan
30967;BME280;17649;51.836;8.330;2023-03-04T10:13:46;101709.50;;;6.55;nan
30967;BME280;17649;51.836;8.330;2023-03-04T10:17:02;101709.47;;;6.57;nan
30967;BME280;17649;51.836;8.330;2023-03-04T10:20:23;101707.22;;;6.42;nan
30967;BME280;17649;51.836;8.330;2023-03-04T10:23:27;101710.47;;;6.50;nan
30967;BME280;17649;51.836;8.330;2023-03-04T10:26:30;101705.22;;;6.54;nan
30967;BME280;17649;51.836;8.330;2023-03-04T10:29:33;101713.53;;;7.06;nan
30967;BME280;17649;51.836;8.330;2023-03-04T10:32:33;101705.81;;;7.06;nan
30967;BME280;17649;51.836;8.330;2023-03-04T10:35:39;101703.84;;;6.78;nan
30967;BME280;17649;51.836;8.330;2023-03-04T10:38:54;101701.22;;;7.18;nan
30967;BME280;17649;51.836;8.330;2023-03-04T10:45:22;101695.56;;;7.72;nan
30967;BME280;17649;51.836;8.330;2023-03-04T10:51:27;101693.25;;;7.63;nan
30967;BME280;17649;51.836;8.330;2023-03-04T10:57:41;101687.16;;;7.66;nan
30967;BME280;17649;51.836;8.330;2023-03-04T11:01:03;101682.72;;;7.71;nan
30967;BME280;17649;51.836;8.330;2023-03-04T11:04:22;101686.94;;;7.41;nan
30967;BME280;17649;51.836;8.330;2023-03-04T11:17:52;101649.72;;;7.53;nan
30967;BME280;17649;51.836;8.330;2023-03-04T11:20:57;101660.47;;;8.30;nan
30967;BME280;17649;51.836;8.330;2023-03-04T11:27:19;101652.47;;;8.10;nan
30967;BME280;17649;51.836;8.330;2023-03-04T11:37:17;101652.91;;;8.24;nan
30967;BME280;17649;51.836;8.330;2023-03-04T11:40:47;101649.06;;;8.39;nan
30967;BME280;17649;51.836;8.330;2023-03-04T11:44:12;101635.66;;;8.84;nan
30967;BME280;17649;51.836;8.330;2023-03-04T11:54:31;101634.78;;;9.11;nan
30967;BME280;17649;51.836;8.330;2023-03-04T12:11:10;101613.50;;;9.30;nan
30967;BME280;17649;51.836;8.330;2023-03-04T12:14:42;101609.28;;;9.01;nan
30967;BME280;17649;51.836;8.330;2023-03-04T12:21:29;101588.91;;;9.68;nan
30967;BME280;17649;51.836;8.330;2023-03-04T12:32:08;101572.22;;;10.45;nan
30967;BME280;17649;51.836;8.330;2023-03-04T12:35:20;101573.81;;;10.27;nan
30967;BME280;17649;51.836;8.330;2023-03-04T12:38:34;101564.31;;;9.33;nan
30967;BME280;17649;51.836;8.330;2023-03-04T13:09:51;101547.72;;;9.40;nan
30967;BME280;17649;51.836;8.330;2023-03-04T13:13:04;101557.75;;;9.94;nan
30967;BME280;17649;51.836;8.330;2023-03-04T13:19:54;101539.97;;;9.63;nan
30967;BME280;17649;51.836;8.330;2023-03-04T13:23:03;101547.25;;;9.52;nan
30967;BME280;17649;51.836;8.330;2023-03-04T13:26:34;101540.41;;;9.27;nan
30967;BME280;17649;51.836;8.330;2023-03-04T13:29:36;101540.47;;;8.75;nan
30967;BME280;17649;51.836;8.330;2023-03-04T13:32:37;101540.44;;;8.50;nan
30967;BME280;17649;51.836;8.330;2023-03-04T13:36:05;101537.91;;;8.47;nan
30967;BME280;17649;51.836;8.330;2023-03-04T13:42:43;101522.03;;;8.85;nan
30967;BME280;17649;51.836;8.330;2023-03-04T13:49:47;101524.56;;;9.37;nan
30967;BME280;17649;51.836;8.330;2023-03-04T14:00:03;101488.25;;;10.52;nan
30967;BME280;17649;51.836;8.330;2023-03-04T14:13:01;101496.09;;;9.62;nan
30967;BME280;17649;51.836;8.330;2023-03-04T14:16:56;101502.06;;;9.40;nan
30967;BME280;17649;51.836;8.330;2023-03-04T14:24:28;101471.19;;;8.62;nan
30967;BME280;17649;51.836;8.330;2023-03-04T14:31:30;101501.78;;;9.00;nan
30967;BME280;17649;51.836;8.330;2023-03-04T14:38:28;101489.97;;;8.68;nan
30967;BME280;17649;51.836;8.330;2023-03-04T14:44:47;101495.91;;;8.15;nan
30967;BME280;17649;51.836;8.330;2023-03-04T14:55:17;101496.94;;;7.82;nan
30967;BME280;17649;51.836;8.330;2023-03-04T14:59:03;101499.78;;;7.72;nan
30967;BME280;17649;51.836;8.330;2023-03-04T15:02:27;101499.88;;;7.69;nan
30967;BME280;17649;51.836;8.330;2023-03-04T15:09:23;101476.38;;;7.80;nan
30967;BME280;17649;51.836;8.330;2023-03-04T15:12:36;101484.81;;;8.13;nan
30967;BME280;17649;51.836;8.330;2023-03-04T15:16:52;101478.66;;;8.17;nan
30967;BME280;17649;51.836;8.330;2023-03-04T15:20:11;101431.72;;;7.80;nan
30967;BME280;17649;51.836;8.330;2023-03-04T15:24:00;101478.16;;;8.32;nan
30967;BME280;17649;51.836;8.330;2023-03-04T15:27:07;101461.38;;;8.47;nan
30967;BME280;17649;51.836;8.330;2023-03-04T15:30:40;101472.94;;;8.62;nan
30967;BME280;17649;51.836;8.330;2023-03-04T15:41:10;101471.59;;;8.24;nan
30967;BME280;17649;51.836;8.330;2023-03-04T15:44:11;101473.31;;;7.95;nan
30967;BME280;17649;51.836;8.330;2023-03-04T15:47:14;101477.22;;;8.08;nan
30967;BME280;17649;51.836;8.330;2023-03-04T15:50:19;101454.44;;;7.67;nan
30967;BME280;17649;51.836;8.330;2023-03-04T15:53:36;101483.53;;;7.70;nan
30967;BME280;17649;51.836;8.330;2023-03-04T15:56:38;101479.53;;;7.90;nan
30967;BME280;17649;51.836;8.330;2023-03-04T15:59:38;101489.16;;;7.83;nan
30967;BME280;17649;51.836;8.330;2023-03-04T16:02:38;101475.22;;;7.90;nan
30967;BME280;17649;51.836;8.330;2023-03-04T16:05:39;101481.94;;;7.66;nan
30967;BME280;17649;51.836;8.330;2023-03-04T16:08:41;101490.19;;;7.77;nan
30967;BME280;17649;51.836;8.330;2023-03-04T16:11:47;101486.53;;;7.85;nan
30967;BME280;17649;51.836;8.330;2023-03-04T16:15:22;101473.84;;;7.78;nan
30967;BME280;17649;51.836;8.330;2023-03-04T16:18:26;101474.13;;;7.97;nan
30967;BME280;17649;51.836;8.330;2023-03-04T16:21:43;101470.91;;;7.91;nan
30967;BME280;17649;51.836;8.330;2023-03-04T16:24:51;101479.44;;;7.93;nan
30967;BME280;17649;51.836;8.330;2023-03-04T16:28:03;101458.06;;;7.89;nan
30967;BME280;17649;51.836;8.330;2023-03-04T16:31:05;101474.38;;;7.90;nan
30967;BME280;17649;51.836;8.330;2023-03-04T16:34:06;101462.19;;;7.95;nan
30967;BME280;17649;51.836;8.330;2023-03-04T16:37:19;101451.28;;;7.57;nan
30967;BME280;17649;51.836;8.330;2023-03-04T16:40:27;101461.78;;;7.51;nan
30967;BME280;17649;51.836;8.330;2023-03-04T16:43:41;101474.16;;;7.68;nan
30967;BME280;17649;51.836;8.330;2023-03-04T16:46:45;101471.22;;;7.51;nan
30967;BME280;17649;51.836;8.330;2023-03-04T16:49:58;101484.06;;;7.52;nan
30967;BME280;17649;51.836;8.330;2023-03-04T16:52:59;101476.13;;;7.60;nan
30967;BME280;17649;51.836;8.330;2023-03-04T16:56:10;101471.13;;;7.24;nan
30967;BME280;17649;51.836;8.330;2023-03-04T16:59:15;101478.50;;;7.36;nan
30967;BME280;17649;51.836;8.330;2023-03-04T17:02:19;101474.94;;;7.40;nan
30967;BME280;17649;51.836;8.330;2023-03-04T17:05:23;101480.09;;;7.40;nan
30967;BME280;17649;51.836;8.330;2023-03-04T17:08:27;101481.56;;;7.49;nan
30967;BME280;17649;51.836;8.330;2023-03-04T17:11:31;101477.56;;;7.39;nan
30967;BME280;17649;51.836;8.330;2023-03-04T17:14:31;101475.97;;;7.35;nan
30967;BME280;17649;51.836;8.330;2023-03-04T17:17:32;101474.38;;;7.31;nan
30967;BME280;17649;51.836;8.330;2023-03-04T17:20:32;101485.09;;;7.15;nan
30967;BME280;17649;51.836;8.330;2023-03-04T17:23:33;101488.50;;;7.16;nan
30967;BME280;17649;51.836;8.330;2023-03-04T17:26:36;101486.03;;;7.11;nan
30967;BME280;17649;51.836;8.330;2023-03-04T17:29:38;101505.50;;;7.22;nan
30967;BME280;17649;51.836;8.330;2023-03-04T17:32:39;101511.16;;;7.03;nan
30967;BME280;17649;51.836;8.330;2023-03-04T17:35:39;101500.94;;;7.00;nan
30967;BME280;17649;51.836;8.330;2023-03-04T17:38:40;101503.31;;;7.08;nan
30967;BME280;17649;51.836;8.330;2023-03-04T17:41:40;101505.41;;;7.25;nan
30967;BME280;17649;51.836;8.330;2023-03-04T17:44:41;101508.28;;;7.14;nan
30967;BME280;17649;51.836;8.330;2023-03-04T17:47:41;101502.63;;;7.01;nan
30967;BME280;17649;51.836;8.330;2023-03-04T17:50:49;101505.97;;;7.05;nan
30967;BME280;17649;51.836;8.330;2023-03-04T17:53:50;101500.03;;;7.03;nan
30967;BME280;17649;51.836;8.330;2023-03-04T17:56:50;101512.03;;;7.02;nan
30967;BME280;17649;51.836;8.330;2023-03-04T17:59:50;101500.50;;;6.84;nan
30967;BME280;17649;51.836;8.330;2023-03-04T18:02:55;101505.75;;;6.80;nan
30967;BME280;17649;51.836;8.330;2023-03-04T18:05:55;101508.22;;;6.83;nan
30967;BME280;17649;51.836;8.330;2023-03-04T18:08:56;101508.09;;;6.89;nan
30967;BME280;17649;51.836;8.330;2023-03-04T18:11:56;101515.94;;;6.83;nan
30967;BME280;17649;51.836;8.330;2023-03-04T18:14:57;101516.34;;;7.02;nan
30967;BME280;17649;51.836;8.330;2023-03-04T18:17:58;101505.78;;;6.78;nan
30967;BME280;17649;51.836;8.330;2023-03-04T18:20:59;101508.53;;;6.72;nan
30967;BME280;17649;51.836;8.330;2023-03-04T18:24:00;101513.91;;;6.96;nan
30967;BME280;17649;51.836;8.330;2023-03-04T18:27:00;101507.28;;;6.87;nan
30967;BME280;17649;51.836;8.330;2023-03-04T18:30:01;101512.31;;;6.92;nan
30967;BME280;17649;51.836;8.330;2023-03-04T18:33:01;101515.84;;;6.87;nan
30967;BME280;17649;51.836;8.330;2023-03-04T18:36:05;101514.25;;;6.82;nan
30967;BME280;17649;51.836;8.330;2023-03-04T18:39:06;101512.66;;;6.78;nan
30967;BME280;17649;51.836;8.330;2023-03-04T18:42:06;101507.78;;;6.67;nan
30967;BME280;17649;51.836;8.330;2023-03-04T18:45:07;101511.91;;;6.74;nan
30967;BME280;17649;51.836;8.330;2023-03-04T18:48:08;101516.66;;;6.54;nan
30967;BME280;17649;51.836;8.330;2023-03-04T18:51:08;101514.25;;;6.48;nan
30967;BME280;17649;51.836;8.330;2023-03-04T18:54:09;101512.34;;;6.56;nan
30967;BME280;17649;51.836;8.330;2023-03-04T18:57:11;101513.97;;;6.60;nan
30967;BME280;17649;51.836;8.330;2023-03-04T19:00:17;101508.81;;;6.60;nan
30967;BME280;17649;51.836;8.330;2023-03-04T19:03:19;101517.34;;;6.62;nan
30967;BME280;17649;51.836;8.330;2023-03-04T19:06:19;101520.75;;;6.63;nan
30967;BME280;17649;51.836;8.330;2023-03-04T19:09:20;101522.47;;;6.62;nan
30967;BME280;17649;51.836;8.330;2023-03-04T19:12:20;101514.63;;;6.67;nan
30967;BME280;17649;51.836;8.330;2023-03-04T19:15:20;101514.25;;;6.48;nan
30967;BME280;17649;51.836;8.330;2023-03-04T19:18:22;101513.28;;;6.52;nan
30967;BME280;17649;51.836;8.330;2023-03-04T19:21:23;101508.94;;;6.54;nan
30967;BME280;17649;51.836;8.330;2023-03-04T19:24:24;101505.53;;;6.53;nan
30967;BME280;17649;51.836;8.330;2023-03-04T19:27:24;101522.66;;;6.56;nan
30967;BME280;17649;51.836;8.330;2023-03-04T19:30:26;101510.06;;;6.44;nan